Tiempo atmosférico en la estación meteorológica de Morón De La Frontera, Sevilla (87 m.)



Fecha
DESCASC
Temp. máxima en grados centígrados (hora)
DESCASC
Temp. mínima en grados centígrados (hora)
DESCASC
Temp. media en grados centígrados
DESCASC
Racha de viento máxima en m/sg (hora)
DESCASC
Velocidad máxima media en intervalos de 10 minutos(hora)
DESCASC
Precipitaciones diarias en mm
DESCASC
Precipitaciones de 00:00 a 06:00 en mm
DESCASC
Precipitaciones de 06:00 a 12:00 en mm
DESCASC
Precipitaciones de 12:00 a 18:00 en mm
DESCASC
Precipitaciones de 18:00 a 24:00 en mm
DESCASC
13-01-2020 16.1 (17:10) -0.4 (00:00) 7.9 3.61 (13:10) 2.22 (13:00) 0 0 0 0 0
09-01-2020 16 (17:10) 0.9 (00:00) 8.4 4.17 (13:40) 2.5 (12:40) 0 0 0 0 0
12-01-2020 16.1 (15:50) 1.2 (08:10) 8.7 4.17 (14:50) 2.78 (15:40) 0 0 0 0 0
06-01-2020 16.1 (16:20) 1.8 (00:00) 9 2.78 (14:30) 2.22 (18:20) 0 0 0 0 0
02-01-2020 15.9 (15:30) 2.8 (00:00) 9.3 3.33 (16:40) 1.94 (16:50) 0 0 0 0 0
04-01-2020 13.9 (15:40) 4.9 (00:00) 9.4 5.83 (13:50) 4.17 (13:30) 0 0 0 0 0
10-01-2020 14.7 (16:40) 4.4 (00:00) 9.5 6.39 (15:10) 3.89 (15:10) 0 0 0 0 0
07-01-2020 17.3 (16:30) 2 (00:00) 9.6 4.44 (10:10) 2.78 (09:50) 0 0 0 0 0
14-01-2020 16.2 (15:50) 3.2 (00:00) 9.7 3.61 (14:50) 2.22 (20:50) 0 0 0 0 0
08-01-2020 17.4 (16:20) 2.2 (00:00) 9.8 5 (12:00) 3.61 (12:00) 0 0 0 0 0
30-12-2019 17.2 (15:50) 2.3 (00:00) 9.8 3.33 (12:20) 2.5 (21:00) 0 0 0 0 0
03-01-2020 14.7 (13:30) 4.8 (00:00) 9.8 4.44 (16:10) 2.78 (16:10) 0 0 0 0 0
05-01-2020 16.6 (15:50) 3.2 (00:00) 9.9 6.39 (16:30) 4.17 (16:30) 0 0 0 0 0
11-01-2020 16 (16:20) 4.1 (00:00) 10 6.67 (10:40) 4.44 (10:40) 0 0 0 0 0
01-01-2020 16.6 (16:20) 3.3 (00:00) 10 2.5 (15:30) 1.67 (21:10) -- 0 -- 0 0
31-12-2019 17.3 (16:30) 2.9 (00:00) 10.1 3.61 (15:20) 2.22 (20:40) 0 0 0 0 0
16-01-2020 19.5 (16:50) 2.4 (00:00) 11 5 (22:30) 3.61 (22:20) 0 0 0 0 0
29-12-2019 19.3 (16:50) 3.1 (00:00) 11.2 3.06 (21:40) 1.94 (20:50) 0 0 0 0 0
15-01-2020 18.6 (16:30) 3.8 (00:00) 11.2 6.11 (13:30) 3.33 (13:10) 0 0 0 0 0
17-01-2020 18.2 (16:20) 7 (00:00) 12.6 4.17 (07:50) 2.78 (02:10) 0 0 0 0 0
28-12-2019 20.4 (16:10) 4.9 (00:00) 12.6 3.33 (14:50) 2.22 (15:20) 0 0 0 0 0
25-12-2019 20 (16:30) 5.9 (00:00) 13 3.33 (06:00) 2.22 (06:00) 0 0 0 0 0
22-12-2019 17.3 (15:50) 10.6 (08:30) 13.9 7.5 (00:20) 4.44 (14:40) 0.1 0 0.1 0 0
26-12-2019 19.8 (16:10) 8.2 (00:00) 14 7.5 (16:40) 4.72 (16:20) 0 0 0 0 0
19-12-2019 17.1 (23:50) 11.1 (00:10) 14.1 17.22 (22:00) 11.11 (10:30) 18.4 0.5 1.1 2 14.8
23-12-2019 17.4 (16:30) 11.2 (00:00) 14.3 7.78 (14:20) 5.56 (14:20) 0 0 0 0 0
27-12-2019 23.7 (15:20) 7.5 (00:00) 15.6 5.28 (19:30) 3.61 (19:30) 0 0 0 0 0
24-12-2019 22.6 (16:00) 9.1 (23:59) 15.9 5 (07:40) 3.33 (06:50) 0 0 0 0 0
20-12-2019 17.9 (15:20) 14.9 (00:00) 16.4 20 (04:10) 11.94 (00:20) 38.1 13.4 17.1 5.4 2.2
21-12-2019 17.9 (12:30) 15.1 (23:50) 16.5 16.11 (00:10) 9.44 (01:00) 3.8 1.7 0.2 1.9 0

Gráficas

Temp. máximas Temp. mínimas Temp. medias Precipitaciones Rachas de viento máximas Velocidades máximas media en intervalos de 10 minutos

Datos horarios

Fecha y hora oficial Temperatura (ºC) Velocidad del viento (km/h) Dirección del viento Racha (km/h) Dirección de racha Precipitación (mm) Presión (hPa) Tendencia (hPa) Humedad (%)
2020-01-17 23:00:00 9.4 4 Sudeste 6 Este 0 -- -- 87
2020-01-17 22:00:00 10.1 5 Nordeste 12 Nordeste 0 -- -- 84
2020-01-17 21:00:00 11.1 3 Sudeste 8 Este 0 -- -- 80
2020-01-17 20:00:00 12.6 5 Este 9 Nordeste 0 -- -- 77
2020-01-17 19:00:00 14.6 6 Nordeste 10 Nordeste 0 -- -- 69
2020-01-17 18:00:00 16.6 3 Norte 9 Norte 0 -- -- 62
2020-01-17 17:00:00 17.9 2 Oeste 5 Noroeste 0 -- -- 60
2020-01-17 16:00:00 17.4 2 Este 6 Nordeste 0 -- -- 64
2020-01-17 15:00:00 17.1 3 Norte 10 Este 0 -- -- 65
2020-01-17 14:00:00 16.3 4 Nordeste 8 Nordeste 0 -- -- 67
2020-01-17 13:00:00 15.5 5 Este 10 Este 0 -- -- 64
2020-01-17 12:00:00 13.3 7 Este 13 Este 0 -- -- 67
2020-01-17 11:00:00 12.4 8 Nordeste 11 Nordeste 0 -- -- 69
2020-01-17 10:00:00 11.2 2 Nordeste 9 Norte 0 -- -- 72
2020-01-17 09:00:00 11.7 5 Sudoeste 14 Sudoeste 0 -- -- 68
2020-01-17 08:00:00 11.5 10 Sudoeste 15 Sudoeste 0 -- -- 64
2020-01-17 07:00:00 11.6 9 Sudoeste 13 Sudoeste 0 -- -- 65
2020-01-17 06:00:00 10.1 7 Sudoeste 13 Sudoeste 0 -- -- 67
2020-01-17 05:00:00 8.5 5 Sur 8 Sur 0 -- -- 71
2020-01-17 04:00:00 7.3 5 Sur 10 Sur 0 -- -- 71
2020-01-17 03:00:00 7.6 5 Sur 14 Sudoeste 0 -- -- 70
2020-01-17 02:00:00 9.2 10 Sudoeste 12 Sudoeste 0 -- -- 70
2020-01-17 01:00:00 11.2 7 Sudoeste 12 Sur 0 -- -- 71
2020-01-17 00:00:00 9 5 Sur 14 Sudoeste 0 -- -- 74
2020-01-16 23:00:00 11.3 9 Sudoeste 18 Sudoeste 0 -- -- 75
2020-01-16 22:00:00 9.7 8 Sur 12 Sur 0 -- -- 76
2020-01-16 21:00:00 10 6 Sur 14 Oeste 0 -- -- 65
2020-01-16 20:00:00 12.4 9 Sudoeste 14 Oeste 0 -- -- 59
2020-01-16 19:00:00 14.1 0 Calma 9 Oeste 0 -- -- 50
2020-01-16 18:00:00 17.3 0 Calma 11 Sudoeste 0 -- -- 43
2020-01-16 17:00:00 19.2 2 Oeste 14 Oeste 0 -- -- 36
2020-01-16 16:00:00 18.8 6 Oeste 12 Oeste 0 -- -- 36
2020-01-16 15:00:00 17.6 3 Noroeste 9 Noroeste 0 -- -- 39
2020-01-16 14:00:00 16.4 4 Norte 9 Norte 0 -- -- 44
2020-01-16 13:00:00 15.3 4 Norte 7 Nordeste 0 -- -- 46
2020-01-16 12:00:00 13.1 5 Este 6 Este 0 -- -- 52
2020-01-16 11:00:00 9.5 3 Nordeste 5 Nordeste 0 -- -- 75
2020-01-16 10:00:00 6.1 3 Nordeste 4 Nordeste 0 -- -- 85
2020-01-16 09:00:00 2.8 0 Calma 5 Este 0 -- -- 86
2020-01-16 08:00:00 3.5 0 Calma 6 Este 0 -- -- 85
2020-01-16 07:00:00 4 2 Norte 4 Norte 0 -- -- 82
2020-01-16 06:00:00 4.2 2 Noroeste 6 Sudeste 0 -- -- 79
2020-01-16 05:00:00 5 6 Sudeste 12 Sudeste 0 -- -- 78
2020-01-16 04:00:00 5.7 7 Sudeste 11 Sudeste 0 -- -- 79
2020-01-16 03:00:00 5.1 4 Sudeste 9 Sur 0 -- -- 80
2020-01-16 02:00:00 5.1 6 Sur 9 Sudeste 0 -- -- 79
2020-01-16 01:00:00 6.1 6 Sur 8 Sur 0 -- -- 79
2020-01-16 00:00:00 6.5 8 Sur 10 Sudeste 0 -- -- 79
2020-01-15 23:00:00 6.9 9 Sur 12 Sur 0 -- -- 74
2020-01-15 22:00:00 8.2 6 Sudeste 8 Sudeste 0 -- -- 71
2020-01-15 21:00:00 9.7 5 Sudoeste 10 Sur 0 -- -- 68
2020-01-15 20:00:00 10.9 6 Sudoeste 8 Sudoeste 0 -- -- 66
2020-01-15 19:00:00 13.5 4 Sudoeste 12 Oeste 0 -- -- 57
2020-01-15 18:00:00 16.5 7 Oeste 19 Sudoeste 0 -- -- 50
2020-01-15 17:00:00 18.4 6 Oeste 18 Oeste 0 -- -- 45
2020-01-15 16:00:00 18.2 6 Sudoeste 21 Sudoeste 0 -- -- 50
2020-01-15 15:00:00 17.5 12 Oeste 20 Oeste 0 -- -- 47
2020-01-15 14:00:00 17.3 7 Sudoeste 22 Sudoeste 0 -- -- 49
2020-01-15 13:00:00 -- -- -- -- -- -- -- -- --
2020-01-15 12:00:00 -- -- -- -- -- -- -- -- --
2020-01-15 11:00:00 11.7 6 Sur 9 Sur 0 -- -- 70
2020-01-15 10:00:00 6.9 4 Sudeste 8 Este 0 -- -- 87
2020-01-15 09:00:00 4 0 Calma 11 Nordeste 0 -- -- 89
2020-01-15 08:00:00 4.8 4 Este 9 Nordeste 0 -- -- 87
2020-01-15 07:00:00 4.7 8 Sur 10 Sur 0 -- -- 87
2020-01-15 06:00:00 5 6 Sur 9 Sur 0 -- -- 86
2020-01-15 05:00:00 5.2 6 Sur 8 Sur 0 -- -- 85
2020-01-15 04:00:00 5.7 4 Sudeste 8 Sudeste 0 -- -- 85
2020-01-15 03:00:00 6.1 5 Sudeste 12 Sudeste 0 -- -- 84
2020-01-15 02:00:00 6.6 6 Sudeste 8 Sudeste 0 -- -- 85
2020-01-15 01:00:00 6.4 5 Sur 8 Sudeste 0 -- -- 82
2020-01-15 00:00:00 7.2 4 Sudeste 10 Sudeste 0 -- -- 81
2020-01-14 23:00:00 7.7 5 Sudeste 6 Sudeste 0 -- -- 79
2020-01-14 22:00:00 7.5 4 Sur 9 Sudeste 0 -- -- 78
2020-01-14 21:00:00 8.7 8 Sudeste 10 Sudeste 0 -- -- 75
2020-01-14 20:00:00 10 0 Calma 4 Noroeste 0 -- -- 66
2020-01-14 19:00:00 12.6 2 Noroeste 5 Noroeste 0 -- -- 60
2020-01-14 18:00:00 14 0 Calma 9 Noroeste 0 -- -- 52
2020-01-14 17:00:00 15.2 3 Noroeste 11 Oeste 0 -- -- 49
2020-01-14 16:00:00 15.3 5 Oeste 11 Oeste 0 -- -- 48
2020-01-14 15:00:00 15.2 4 Oeste 13 Sudoeste 0 -- -- 52
2020-01-14 14:00:00 14.2 2 Norte 8 Oeste 0 -- -- 57
2020-01-14 13:00:00 14 3 Oeste 8 Sur 0 -- -- 58
2020-01-14 12:00:00 11.2 2 Noroeste 5 Oeste 0 -- -- 68
2020-01-14 11:00:00 8 2 Norte 5 Nordeste 0 -- -- 79
2020-01-14 10:00:00 6.9 0 Calma 6 Este 0 -- -- 87
2020-01-14 09:00:00 5.5 3 Norte 6 Norte 0 -- -- 88
2020-01-14 08:00:00 5.5 2 Nordeste 7 Norte 0 -- -- 88
2020-01-14 07:00:00 5.5 0 Calma 7 Sur 0 -- -- 89
2020-01-14 06:00:00 4.1 3 Sur 10 Noroeste 0 -- -- 89
2020-01-14 05:00:00 3.2 3 Sudeste 6 Sudeste 0 -- -- 89
2020-01-14 04:00:00 4 0 Calma 9 Nordeste 0 -- -- 88
2020-01-14 03:00:00 4 0 Calma 5 Nordeste 0 -- -- 86
2020-01-14 02:00:00 5 0 Calma 6 Norte 0 -- -- 84
2020-01-14 01:00:00 5.7 0 Calma 9 Sur 0 -- -- 82
2020-01-14 00:00:00 5.7 6 Sur 10 Sur 0 -- -- 81
2020-01-13 23:00:00 6.4 6 Sur 9 Sudeste 0 -- -- 79
2020-01-13 22:00:00 7.6 7 Sur 9 Sudeste 0 -- -- 76
2020-01-13 21:00:00 8.7 5 Sudeste 7 Sudeste 0 -- -- 69
2020-01-13 20:00:00 10.3 3 Este 8 Nordeste 0 -- -- 64
2020-01-13 19:00:00 11.8 6 Nordeste 10 Norte 0 -- -- 56
2020-01-13 18:00:00 14.2 5 Noroeste 10 Norte 0 -- -- 50
2020-01-13 17:00:00 15.7 3 Noroeste 8 Noroeste 0 -- -- 46
2020-01-13 16:00:00 15.3 2 Norte 6 Norte 0 -- -- 46
2020-01-13 15:00:00 14.8 3 Nordeste 9 Nordeste 0 -- -- 47
2020-01-13 14:00:00 13.8 5 Nordeste 13 Norte 0 -- -- 53
2020-01-13 13:00:00 12.5 8 Nordeste 12 Nordeste 0 -- -- 57
2020-01-13 12:00:00 10.5 5 Norte 9 Norte 0 -- -- 69
2020-01-13 11:00:00 7 2 Norte 4 Nordeste 0 -- -- 80
2020-01-13 10:00:00 4.3 0 Calma 3 Este 0 -- -- 89
2020-01-13 09:00:00 1.2 0 Calma 5 Norte 0 -- -- 90
2020-01-13 08:00:00 0.1 3 Sudeste 4 Sudeste 0 -- -- 89
2020-01-13 07:00:00 0.6 3 Sur 7 Sudeste 0 -- -- 89
2020-01-13 06:00:00 1.3 0 Calma 5 Nordeste 0 -- -- 89
2020-01-13 05:00:00 1.3 4 Este 6 Este 0 -- -- 87
2020-01-13 04:00:00 1.5 2 Sudeste 5 Sudeste 0 -- -- 85
2020-01-13 03:00:00 2.8 2 Nordeste 6 Sudeste 0 -- -- 85
2020-01-13 02:00:00 2.6 2 Sur 4 Nordeste 0 -- -- 82
2020-01-13 01:00:00 3.7 0 Calma 4 Sudeste 0 -- -- 80
2020-01-13 00:00:00 3.9 3 Este 6 Sudeste 0 -- -- 79
2020-01-12 23:00:00 4.9 4 Este 5 Nordeste 0 -- -- 76
2020-01-12 22:00:00 4.9 4 Sur 6 Este 0 -- -- 69
2020-01-12 21:00:00 7 4 Sudeste 6 Sudeste 0 -- -- 64
2020-01-12 20:00:00 10.1 4 Este 7 Nordeste 0 -- -- 53
2020-01-12 19:00:00 11.8 5 Nordeste 11 Nordeste 0 -- -- 48
2020-01-12 18:00:00 14 8 Nordeste 13 Nordeste 0 -- -- 43
2020-01-12 17:00:00 15.7 7 Nordeste 15 Este 0 -- -- 39
2020-01-12 16:00:00 16 9 Nordeste 15 Nordeste 0 -- -- 39
2020-01-12 15:00:00 15.4 9 Nordeste 15 Nordeste 0 -- -- 46
2020-01-12 14:00:00 14.7 8 Nordeste 13 Nordeste 0 -- -- 55
2020-01-12 13:00:00 13.2 8 Nordeste 12 Nordeste 0 -- -- 59
2020-01-12 12:00:00 11.3 5 Norte 9 Norte 0 -- -- 68
2020-01-12 11:00:00 8.1 3 Nordeste 5 Sudeste 0 -- -- 79
2020-01-12 10:00:00 4.6 2 Sudeste 5 Sudeste 0 -- -- 90
2020-01-12 09:00:00 1.5 3 Nordeste 4 Nordeste 0 -- -- 90
2020-01-12 08:00:00 1.3 0 Calma 5 Este 0 -- -- 90
2020-01-12 07:00:00 1.9 4 Norte 5 Norte 0 -- -- 90
2020-01-12 06:00:00 1.5 4 Sur 6 Este 0 -- -- 89
2020-01-12 05:00:00 2.4 3 Este 5 Sudeste 0 -- -- 88
2020-01-12 04:00:00 2.5 0 Calma 3 Este 0 -- -- 86
2020-01-12 03:00:00 3.8 3 Sur 7 Sudeste 0 -- -- 85
2020-01-12 02:00:00 3 6 Sur 7 Sudeste 0 -- -- 82
2020-01-12 01:00:00 4.2 0 Calma 4 Este 0 -- -- 80
2020-01-12 00:00:00 5.1 2 Sur 5 Sur 0 -- -- 79
2020-01-11 23:00:00 5.3 4 Sudeste 5 Sudeste 0 -- -- 75
2020-01-11 22:00:00 6.6 5 Sudeste 8 Sudeste 0 -- -- 71
2020-01-11 21:00:00 7.3 6 Sudeste 8 Sudeste 0 -- -- 67
2020-01-11 20:00:00 10.1 2 Este 7 Nordeste 0 -- -- 53
2020-01-11 19:00:00 11.9 4 Nordeste 8 Nordeste 0 -- -- 47
2020-01-11 18:00:00 14.2 5 Nordeste 11 Nordeste 0 -- -- 41
2020-01-11 17:00:00 15.6 6 Norte 14 Nordeste 0 -- -- 39
2020-01-11 16:00:00 15.8 8 Norte 15 Nordeste 0 -- -- 39
2020-01-11 15:00:00 15.3 8 Nordeste 17 Nordeste 0 -- -- 42
2020-01-11 14:00:00 14.5 10 Nordeste 18 Norte 0 -- -- 45
2020-01-11 13:00:00 13.3 10 Nordeste 18 Este 0 -- -- 46
2020-01-11 12:00:00 11.6 10 Este 21 Este 0 -- -- 52
2020-01-11 11:00:00 9 15 Este 24 Este 0 -- -- 59
2020-01-11 10:00:00 7.1 11 Nordeste 19 Este 0 -- -- 68
2020-01-11 09:00:00 4.6 10 Nordeste 15 Este 0 -- -- 75
2020-01-11 08:00:00 4.3 5 Nordeste 14 Este 0 -- -- 74
2020-01-11 07:00:00 4.2 7 Este 21 Este 0 -- -- 74
2020-01-11 06:00:00 5 9 Este 16 Este 0 -- -- 72
2020-01-11 05:00:00 5.2 7 Este 16 Este 0 -- -- 71
2020-01-11 04:00:00 4.8 8 Nordeste 14 Nordeste 0 -- -- 73
2020-01-11 03:00:00 5.4 8 Nordeste 11 Nordeste 0 -- -- 71
2020-01-11 02:00:00 5.8 3 Este 12 Nordeste 0 -- -- 70
2020-01-11 01:00:00 5.7 7 Este 13 Este 0 -- -- 71
2020-01-11 00:00:00 6 9 Este 13 Este 0 -- -- 74
2020-01-10 23:00:00 7.2 6 Este 13 Nordeste 0 -- -- 72
2020-01-10 22:00:00 7.5 6 Este 11 Este 0 -- -- 79
2020-01-10 21:00:00 8.9 3 Este 10 Nordeste 0 -- -- 75
2020-01-10 20:00:00 11.2 7 Nordeste 11 Nordeste 0 -- -- 66
2020-01-10 19:00:00 11.9 7 Nordeste 12 Nordeste 0 -- -- 64
2020-01-10 18:00:00 13.6 5 Nordeste 15 Nordeste 0 -- -- 59
2020-01-10 17:00:00 14.3 11 Nordeste 19 Nordeste 0 -- -- 57
2020-01-10 16:00:00 14.1 14 Nordeste 23 Nordeste 0 -- -- 58
2020-01-10 15:00:00 14.2 13 Nordeste 20 Nordeste 0 -- -- 59
2020-01-10 14:00:00 13.1 11 Nordeste 21 Nordeste 0 -- -- 65
2020-01-10 13:00:00 12.1 8 Nordeste 14 Este 0 -- -- 71
2020-01-10 12:00:00 9.3 5 Nordeste 9 Nordeste 0 -- -- 86
2020-01-10 11:00:00 7.7 5 Nordeste 9 Nordeste 0 -- -- 90
2020-01-10 10:00:00 6.5 0 Calma 2 Norte 0 -- -- 91
2020-01-10 09:00:00 5.3 0 Calma 6 Sudeste 0 -- -- 90
2020-01-10 08:00:00 5.2 6 Sur 8 Sudeste 0 -- -- 89
2020-01-10 07:00:00 6.6 5 Sur 8 Sur 0 -- -- 89
2020-01-10 06:00:00 6.5 5 Sur 9 Sur 0 -- -- 90
2020-01-10 05:00:00 6 0 Calma 4 Sudoeste 0 -- -- 91
2020-01-10 04:00:00 5.1 0 Calma 8 Sur 0 -- -- 90
2020-01-10 03:00:00 5 6 Sur 11 Sur 0 -- -- 89
2020-01-10 02:00:00 4.9 6 Sur 10 Sur 0 -- -- 89
2020-01-10 01:00:00 5.1 6 Sur 9 Sur 0 -- -- 87
2020-01-10 00:00:00 4.7 6 Sur 7 Sudeste 0 -- -- 86
2020-01-09 23:00:00 5.9 6 Sur 7 Sur 0 -- -- 84
2020-01-09 22:00:00 6.5 2 Sur 7 Sur 0 -- -- 81
2020-01-09 21:00:00 7.7 5 Sur 8 Sur 0 -- -- 79
2020-01-09 20:00:00 9.5 0 Calma 7 Norte 0 -- -- 69
2020-01-09 19:00:00 12.4 4 Norte 6 Norte 0 -- -- 63
2020-01-09 18:00:00 14.2 4 Norte 6 Norte 0 -- -- 55
2020-01-09 17:00:00 15.3 0 Calma 9 Norte 0 -- -- 52
2020-01-09 16:00:00 15.1 6 Norte 13 Nordeste 0 -- -- 54
2020-01-09 15:00:00 15.1 7 Norte 14 Nordeste 0 -- -- 55
2020-01-09 14:00:00 14.2 5 Este 15 Este 0 -- -- 59
2020-01-09 13:00:00 13 8 Nordeste 14 Nordeste 0 -- -- 65
2020-01-09 12:00:00 11.6 5 Norte 8 Norte 0 -- -- 75
2020-01-09 11:00:00 8.5 2 Norte 6 Sudeste 0 -- -- 84
2020-01-09 10:00:00 5.4 5 Sudeste 9 Sudeste 0 -- -- 92
2020-01-09 09:00:00 2.2 5 Sur 9 Sur 0 -- -- 92
2020-01-09 08:00:00 1.1 7 Sur 9 Sur 0 -- -- 90
2020-01-09 07:00:00 1.7 0 Calma 3 Nordeste 0 -- -- 90
2020-01-09 06:00:00 3.4 2 Norte 5 Nordeste 0 -- -- 90
2020-01-09 05:00:00 2.9 4 Sur 6 Sudeste 0 -- -- 89
2020-01-09 04:00:00 3.9 4 Este 5 Este 0 -- -- 88
2020-01-09 03:00:00 4.2 5 Sudeste 9 Sur 0 -- -- 86
2020-01-09 02:00:00 4.9 6 Sur 7 Sur 0 -- -- 85
2020-01-09 01:00:00 5.5 4 Sur 9 Sur 0 -- -- 83
2020-01-09 00:00:00 5.1 7 Sur 9 Sudoeste 0 -- -- 81
2020-01-08 23:00:00 5.8 7 Sur 10 Sur 0 -- -- 80
2020-01-08 22:00:00 6.5 6 Sur 10 Sur 0 -- -- 79
2020-01-08 21:00:00 7 7 Sur 9 Sudeste 0 -- -- 75
2020-01-08 20:00:00 8.7 4 Sur 7 Sur 0 -- -- 65
2020-01-08 19:00:00 13.1 0 Calma 3 Norte 0 -- -- 53
2020-01-08 18:00:00 15.8 0 Calma 8 Nordeste 0 -- -- 45
2020-01-08 17:00:00 17.3 5 Nordeste 9 Nordeste 0 -- -- 42
2020-01-08 16:00:00 17.2 6 Nordeste 12 Este 0 -- -- 41
2020-01-08 15:00:00 16.5 7 Nordeste 17 Nordeste 0 -- -- 44
2020-01-08 14:00:00 15.3 12 Nordeste 17 Nordeste 0 -- -- 44
2020-01-08 13:00:00 13.9 10 Nordeste 18 Nordeste 0 -- -- 49
2020-01-08 12:00:00 11.6 13 Nordeste 18 Nordeste 0 -- -- 55
2020-01-08 11:00:00 8.9 8 Nordeste 14 Nordeste 0 -- -- 72
2020-01-08 10:00:00 5.7 8 Nordeste 12 Nordeste 0 -- -- 83
2020-01-08 09:00:00 3 5 Este 7 Este 0 -- -- 90
2020-01-08 08:00:00 2.7 3 Nordeste 9 Nordeste 0 -- -- 90
2020-01-08 07:00:00 2.8 4 Nordeste 5 Nordeste 0 -- -- 90
2020-01-08 06:00:00 2.8 3 Nordeste 6 Sudeste 0 -- -- 90
2020-01-08 05:00:00 3.1 5 Sur 6 Sur 0 -- -- 89
2020-01-08 04:00:00 3.8 2 Sudeste 6 Nordeste 0 -- -- 89
2020-01-08 03:00:00 4.4 2 Este 7 Sudeste 0 -- -- 89
2020-01-08 02:00:00 3.7 6 Sur 9 Sur 0 -- -- 89
2020-01-08 01:00:00 4.4 7 Sur 9 Sur 0 -- -- 88
2020-01-08 00:00:00 5.4 5 Sur 6 Sur 0 -- -- 87
2020-01-07 23:00:00 6.2 2 Sur 9 Sudeste 0 -- -- 85
2020-01-07 22:00:00 7.4 5 Sur 8 Sur 0 -- -- 84
2020-01-07 21:00:00 8.3 4 Sudeste 6 Sudeste 0 -- -- 79
2020-01-07 20:00:00 9.1 4 Sur 5 Sur 0 -- -- 71
2020-01-07 19:00:00 12.3 0 Calma 3 Sur 0 -- -- 60
2020-01-07 18:00:00 15.4 0 Calma 5 Este 0 -- -- 49
2020-01-07 17:00:00 16.7 2 Este 7 Sudeste 0 -- -- 46
2020-01-07 16:00:00 16.4 2 Este 9 Este 0 -- -- 46
2020-01-07 15:00:00 15.4 4 Nordeste 11 Nordeste 0 -- -- 49
2020-01-07 14:00:00 13.9 4 Norte 10 Nordeste 0 -- -- 56
2020-01-07 13:00:00 12.4 3 Norte 12 Nordeste 0 -- -- 61
2020-01-07 12:00:00 10.3 7 Nordeste 13 Nordeste 0 -- -- 72
2020-01-07 11:00:00 8 6 Este 16 Este 0 -- -- 85
2020-01-07 10:00:00 5.5 9 Este 15 Este 0 -- -- 93
2020-01-07 09:00:00 3.4 5 Este 11 Nordeste 0 -- -- 93
2020-01-07 08:00:00 3.4 8 Nordeste 10 Nordeste 0 -- -- 93
2020-01-07 07:00:00 3.1 7 Sudeste 12 Este 0 -- -- 93
2020-01-07 06:00:00 2.9 4 Nordeste 7 Nordeste 0 -- -- 92
2020-01-07 05:00:00 3.3 2 Nordeste 6 Sudeste 0 -- -- 92
2020-01-07 04:00:00 2.6 0 Calma 4 Nordeste 0 -- -- 90
2020-01-07 03:00:00 4.6 2 Nordeste 6 Norte 0 -- -- 90
2020-01-07 02:00:00 5.1 3 Sur 8 Sur 0 -- -- 89
2020-01-07 01:00:00 4.8 7 Sur 8 Sudeste 0 -- -- 89
2020-01-07 00:00:00 5 7 Sudeste 9 Sudeste 0 -- -- 87
2020-01-06 23:00:00 6.4 2 Sudeste 5 Este 0 -- -- 86
2020-01-06 22:00:00 6.9 2 Sur 4 Sudeste 0 -- -- 83
2020-01-06 21:00:00 8.3 0 Calma 5 Sudeste 0 -- -- 79
2020-01-06 20:00:00 8.5 4 Sur 6 Sudeste 0 -- -- 72
2020-01-06 19:00:00 11.7 0 Calma 10 Norte 0 -- -- 65
2020-01-06 18:00:00 14 6 Norte 9 Norte 0 -- -- 57
2020-01-06 17:00:00 15.4 3 Norte 6 Norte 0 -- -- 52
2020-01-06 16:00:00 15.3 0 Calma 10 Noroeste 0 -- -- 53
2020-01-06 15:00:00 14.7 5 Norte 10 Norte 0 -- -- 53
2020-01-06 14:00:00 14.2 3 Norte 9 Nordeste 0 -- -- 58
2020-01-06 13:00:00 12.7 3 Norte 8 Norte 0 -- -- 66
2020-01-06 12:00:00 10.3 5 Norte 8 Norte 0 -- -- 75
2020-01-06 11:00:00 9.6 0 Calma 8 Sudeste 0 -- -- 81
2020-01-06 10:00:00 5.4 4 Sudeste 9 Sudeste 0 -- -- 92